Straight Mountain, Alabama
Current Conditions -  °F | °C
As of 6:15 AM on Monday 24 Nov 2014 (Local Time) from KGAD Reporting Station
Broken Clouds Broken Clouds  
Wind Chill: 63°   Ceiling: 2600
Heat Index: 63°   Visibility: 10mi
Dew Point: 55°   Wind: 6mph
Humidity: 77%   Direction: 210°SSW
Pressure: 29.72"   Gusts: NA
Location:  33.8959°N, 86.4894°W
Report Text: KGAD 241215Z 21005KT 10SM BKN026 17/13 A2972 RMK AO1
Loading
Personal Weather Stations






























Interactive Weather Map New forecast layout! Learn more

10-Day Weather Forecast

Advertisements
Track Severe Weather on mobile